sensor_id;sensor_type;location;lat;lon;timestamp;P1;durP1;ratioP1;P2;durP2;ratioP2
80293;SDS011;69594;43.516;1.498;2023-07-31T00:00:22;5.20;;;3.20;;
80293;SDS011;69594;43.516;1.498;2023-07-31T00:02:47;4.93;;;2.80;;
80293;SDS011;69594;43.516;1.498;2023-07-31T00:05:12;7.27;;;2.90;;
80293;SDS011;69594;43.516;1.498;2023-07-31T00:07:37;5.10;;;3.10;;
80293;SDS011;69594;43.516;1.498;2023-07-31T00:10:03;6.73;;;2.73;;
80293;SDS011;69594;43.516;1.498;2023-07-31T00:12:28;6.77;;;2.90;;
80293;SDS011;69594;43.516;1.498;2023-07-31T00:14:53;7.67;;;2.87;;
80293;SDS011;69594;43.516;1.498;2023-07-31T00:17:19;4.95;;;2.78;;
80293;SDS011;69594;43.516;1.498;2023-07-31T00:19:44;7.30;;;2.63;;
80293;SDS011;69594;43.516;1.498;2023-07-31T00:22:11;8.50;;;3.53;;
80293;SDS011;69594;43.516;1.498;2023-07-31T00:24:36;6.82;;;2.67;;
80293;SDS011;69594;43.516;1.498;2023-07-31T00:27:02;6.00;;;2.90;;
80293;SDS011;69594;43.516;1.498;2023-07-31T00:29:27;7.87;;;3.20;;
80293;SDS011;69594;43.516;1.498;2023-07-31T00:31:52;8.97;;;3.33;;
80293;SDS011;69594;43.516;1.498;2023-07-31T00:34:17;6.77;;;2.83;;
80293;SDS011;69594;43.516;1.498;2023-07-31T00:36:43;6.17;;;3.47;;
80293;SDS011;69594;43.516;1.498;2023-07-31T00:39:08;5.97;;;2.90;;
80293;SDS011;69594;43.516;1.498;2023-07-31T00:41:33;7.10;;;3.10;;
80293;SDS011;69594;43.516;1.498;2023-07-31T00:43:58;6.13;;;3.00;;
80293;SDS011;69594;43.516;1.498;2023-07-31T00:46:24;6.77;;;3.13;;
80293;SDS011;69594;43.516;1.498;2023-07-31T00:48:49;9.07;;;3.17;;
80293;SDS011;69594;43.516;1.498;2023-07-31T00:51:14;7.25;;;3.20;;
80293;SDS011;69594;43.516;1.498;2023-07-31T00:53:40;8.13;;;3.40;;
80293;SDS011;69594;43.516;1.498;2023-07-31T00:56:05;6.97;;;3.30;;
80293;SDS011;69594;43.516;1.498;2023-07-31T00:58:31;8.87;;;3.33;;
80293;SDS011;69594;43.516;1.498;2023-07-31T01:00:56;6.72;;;3.50;;
80293;SDS011;69594;43.516;1.498;2023-07-31T01:03:21;6.67;;;3.37;;
80293;SDS011;69594;43.516;1.498;2023-07-31T01:09:07;7.35;;;3.10;;
80293;SDS011;69594;43.516;1.498;2023-07-31T01:11:15;6.25;;;3.25;;
80293;SDS011;69594;43.516;1.498;2023-07-31T01:13:42;6.63;;;3.47;;
80293;SDS011;69594;43.516;1.498;2023-07-31T01:16:07;7.75;;;3.22;;
80293;SDS011;69594;43.516;1.498;2023-07-31T01:18:32;7.77;;;3.87;;
80293;SDS011;69594;43.516;1.498;2023-07-31T01:21:02;8.33;;;3.43;;
80293;SDS011;69594;43.516;1.498;2023-07-31T01:23:37;5.22;;;3.10;;
80293;SDS011;69594;43.516;1.498;2023-07-31T01:26:13;6.05;;;2.95;;
80293;SDS011;69594;43.516;1.498;2023-07-31T01:28:42;8.50;;;3.22;;
80293;SDS011;69594;43.516;1.498;2023-07-31T01:31:10;7.70;;;3.10;;
80293;SDS011;69594;43.516;1.498;2023-07-31T01:33:36;7.63;;;3.10;;
80293;SDS011;69594;43.516;1.498;2023-07-31T01:36:02;6.70;;;3.42;;
80293;SDS011;69594;43.516;1.498;2023-07-31T01:38:27;7.77;;;3.07;;
80293;SDS011;69594;43.516;1.498;2023-07-31T01:40:53;7.23;;;3.27;;
80293;SDS011;69594;43.516;1.498;2023-07-31T01:43:18;8.17;;;3.50;;
80293;SDS011;69594;43.516;1.498;2023-07-31T01:45:43;6.35;;;3.08;;
80293;SDS011;69594;43.516;1.498;2023-07-31T01:48:09;6.87;;;3.40;;
80293;SDS011;69594;43.516;1.498;2023-07-31T01:50:34;6.33;;;3.23;;
80293;SDS011;69594;43.516;1.498;2023-07-31T01:52:59;6.20;;;3.63;;
80293;SDS011;69594;43.516;1.498;2023-07-31T01:55:24;5.10;;;3.00;;
80293;SDS011;69594;43.516;1.498;2023-07-31T01:57:50;6.47;;;3.50;;
80293;SDS011;69594;43.516;1.498;2023-07-31T02:00:15;8.97;;;3.70;;
80293;SDS011;69594;43.516;1.498;2023-07-31T02:02:40;11.30;;;3.33;;
80293;SDS011;69594;43.516;1.498;2023-07-31T02:05:06;8.17;;;3.43;;
80293;SDS011;69594;43.516;1.498;2023-07-31T02:07:31;8.10;;;3.53;;
80293;SDS011;69594;43.516;1.498;2023-07-31T02:09:56;8.60;;;3.57;;
80293;SDS011;69594;43.516;1.498;2023-07-31T02:12:21;7.73;;;3.17;;
80293;SDS011;69594;43.516;1.498;2023-07-31T02:14:47;7.30;;;3.60;;
80293;SDS011;69594;43.516;1.498;2023-07-31T02:17:12;7.80;;;3.20;;
80293;SDS011;69594;43.516;1.498;2023-07-31T02:19:37;7.73;;;3.50;;
80293;SDS011;69594;43.516;1.498;2023-07-31T02:22:02;6.60;;;3.13;;
80293;SDS011;69594;43.516;1.498;2023-07-31T02:24:28;6.37;;;3.37;;
80293;SDS011;69594;43.516;1.498;2023-07-31T02:26:53;7.97;;;3.87;;
80293;SDS011;69594;43.516;1.498;2023-07-31T02:29:18;6.83;;;3.33;;
80293;SDS011;69594;43.516;1.498;2023-07-31T02:31:43;8.13;;;3.27;;
80293;SDS011;69594;43.516;1.498;2023-07-31T02:34:09;7.93;;;3.07;;
80293;SDS011;69594;43.516;1.498;2023-07-31T02:36:34;7.83;;;2.80;;
80293;SDS011;69594;43.516;1.498;2023-07-31T02:38:59;8.37;;;3.20;;
80293;SDS011;69594;43.516;1.498;2023-07-31T02:41:24;7.17;;;3.53;;
80293;SDS011;69594;43.516;1.498;2023-07-31T02:43:50;10.13;;;3.87;;
80293;SDS011;69594;43.516;1.498;2023-07-31T02:46:15;8.10;;;3.20;;
80293;SDS011;69594;43.516;1.498;2023-07-31T02:48:40;8.47;;;3.87;;
80293;SDS011;69594;43.516;1.498;2023-07-31T02:51:05;9.77;;;3.97;;
80293;SDS011;69594;43.516;1.498;2023-07-31T02:53:31;7.50;;;4.20;;
80293;SDS011;69594;43.516;1.498;2023-07-31T02:55:56;10.83;;;4.90;;
80293;SDS011;69594;43.516;1.498;2023-07-31T02:58:21;11.67;;;6.27;;
80293;SDS011;69594;43.516;1.498;2023-07-31T03:00:46;16.47;;;7.07;;
80293;SDS011;69594;43.516;1.498;2023-07-31T03:03:12;16.27;;;9.27;;
80293;SDS011;69594;43.516;1.498;2023-07-31T03:05:37;14.00;;;8.73;;
80293;SDS011;69594;43.516;1.498;2023-07-31T03:08:02;19.15;;;9.45;;
80293;SDS011;69594;43.516;1.498;2023-07-31T03:10:28;14.77;;;7.63;;
80293;SDS011;69594;43.516;1.498;2023-07-31T03:12:54;12.73;;;8.03;;
80293;SDS011;69594;43.516;1.498;2023-07-31T03:15:19;15.10;;;7.73;;
80293;SDS011;69594;43.516;1.498;2023-07-31T03:17:44;16.37;;;8.13;;
80293;SDS011;69594;43.516;1.498;2023-07-31T03:20:09;12.43;;;7.43;;
80293;SDS011;69594;43.516;1.498;2023-07-31T03:22:35;14.07;;;7.23;;
80293;SDS011;69594;43.516;1.498;2023-07-31T03:25:01;13.60;;;6.17;;
80293;SDS011;69594;43.516;1.498;2023-07-31T03:27:26;13.45;;;5.68;;
80293;SDS011;69594;43.516;1.498;2023-07-31T03:29:51;12.00;;;5.87;;
80293;SDS011;69594;43.516;1.498;2023-07-31T03:32:17;11.70;;;5.60;;
80293;SDS011;69594;43.516;1.498;2023-07-31T03:34:42;10.60;;;5.10;;
80293;SDS011;69594;43.516;1.498;2023-07-31T03:37:07;9.57;;;4.77;;
80293;SDS011;69594;43.516;1.498;2023-07-31T03:39:34;11.98;;;4.05;;
80293;SDS011;69594;43.516;1.498;2023-07-31T03:41:59;8.93;;;3.83;;
80293;SDS011;69594;43.516;1.498;2023-07-31T03:44:24;9.60;;;3.93;;
80293;SDS011;69594;43.516;1.498;2023-07-31T03:46:50;7.57;;;3.83;;
80293;SDS011;69594;43.516;1.498;2023-07-31T03:49:15;9.90;;;3.67;;
80293;SDS011;69594;43.516;1.498;2023-07-31T03:51:40;8.50;;;3.40;;
80293;SDS011;69594;43.516;1.498;2023-07-31T03:54:06;10.18;;;4.13;;
80293;SDS011;69594;43.516;1.498;2023-07-31T03:56:32;8.05;;;3.00;;
80293;SDS011;69594;43.516;1.498;2023-07-31T03:58:58;9.03;;;3.87;;
80293;SDS011;69594;43.516;1.498;2023-07-31T04:01:23;8.27;;;3.67;;
80293;SDS011;69594;43.516;1.498;2023-07-31T04:03:48;8.00;;;3.40;;
80293;SDS011;69594;43.516;1.498;2023-07-31T04:06:13;6.17;;;3.00;;
80293;SDS011;69594;43.516;1.498;2023-07-31T04:08:42;7.00;;;3.50;;
80293;SDS011;69594;43.516;1.498;2023-07-31T04:11:08;7.27;;;2.90;;
80293;SDS011;69594;43.516;1.498;2023-07-31T04:13:33;5.47;;;2.93;;
80293;SDS011;69594;43.516;1.498;2023-07-31T04:15:58;6.50;;;3.17;;
80293;SDS011;69594;43.516;1.498;2023-07-31T04:18:24;6.87;;;3.27;;
80293;SDS011;69594;43.516;1.498;2023-07-31T04:20:49;5.82;;;3.00;;
80293;SDS011;69594;43.516;1.498;2023-07-31T04:23:15;7.07;;;2.80;;
80293;SDS011;69594;43.516;1.498;2023-07-31T04:25:40;8.37;;;2.73;;
80293;SDS011;69594;43.516;1.498;2023-07-31T04:28:05;6.57;;;2.97;;
80293;SDS011;69594;43.516;1.498;2023-07-31T04:30:30;7.37;;;3.53;;
80293;SDS011;69594;43.516;1.498;2023-07-31T04:32:56;9.10;;;3.37;;
80293;SDS011;69594;43.516;1.498;2023-07-31T04:35:21;9.60;;;3.60;;
80293;SDS011;69594;43.516;1.498;2023-07-31T04:37:46;7.77;;;2.80;;
80293;SDS011;69594;43.516;1.498;2023-07-31T04:40:14;9.52;;;3.50;;
80293;SDS011;69594;43.516;1.498;2023-07-31T04:42:39;7.17;;;3.00;;
80293;SDS011;69594;43.516;1.498;2023-07-31T04:45:04;8.80;;;3.20;;
80293;SDS011;69594;43.516;1.498;2023-07-31T04:47:30;9.73;;;3.23;;
80293;SDS011;69594;43.516;1.498;2023-07-31T04:49:55;9.10;;;3.97;;
80293;SDS011;69594;43.516;1.498;2023-07-31T04:52:20;6.57;;;2.97;;
80293;SDS011;69594;43.516;1.498;2023-07-31T04:54:45;8.23;;;3.33;;
80293;SDS011;69594;43.516;1.498;2023-07-31T04:57:11;9.97;;;3.40;;
80293;SDS011;69594;43.516;1.498;2023-07-31T04:59:36;9.57;;;3.80;;
80293;SDS011;69594;43.516;1.498;2023-07-31T05:02:02;8.77;;;3.27;;
80293;SDS011;69594;43.516;1.498;2023-07-31T05:04:27;8.00;;;3.13;;
80293;SDS011;69594;43.516;1.498;2023-07-31T05:06:52;8.90;;;3.10;;
80293;SDS011;69594;43.516;1.498;2023-07-31T05:09:17;6.93;;;2.87;;
80293;SDS011;69594;43.516;1.498;2023-07-31T05:11:43;8.95;;;3.17;;
80293;SDS011;69594;43.516;1.498;2023-07-31T05:14:08;7.77;;;3.50;;
80293;SDS011;69594;43.516;1.498;2023-07-31T05:16:34;9.83;;;3.10;;
80293;SDS011;69594;43.516;1.498;2023-07-31T05:18:59;7.67;;;3.47;;
80293;SDS011;69594;43.516;1.498;2023-07-31T05:21:24;10.13;;;4.07;;
80293;SDS011;69594;43.516;1.498;2023-07-31T05:23:50;9.00;;;3.03;;
80293;SDS011;69594;43.516;1.498;2023-07-31T05:26:15;6.07;;;3.10;;
80293;SDS011;69594;43.516;1.498;2023-07-31T05:28:40;8.70;;;3.27;;
80293;SDS011;69594;43.516;1.498;2023-07-31T05:31:05;7.90;;;3.00;;
80293;SDS011;69594;43.516;1.498;2023-07-31T05:33:31;8.80;;;3.03;;
80293;SDS011;69594;43.516;1.498;2023-07-31T05:35:57;10.03;;;3.40;;
80293;SDS011;69594;43.516;1.498;2023-07-31T05:38:22;9.57;;;3.17;;
80293;SDS011;69594;43.516;1.498;2023-07-31T05:40:47;6.63;;;2.80;;
80293;SDS011;69594;43.516;1.498;2023-07-31T05:43:13;7.40;;;3.20;;
80293;SDS011;69594;43.516;1.498;2023-07-31T05:45:39;10.48;;;3.05;;
80293;SDS011;69594;43.516;1.498;2023-07-31T05:48:05;6.30;;;2.78;;
80293;SDS011;69594;43.516;1.498;2023-07-31T05:50:31;8.63;;;3.23;;
80293;SDS011;69594;43.516;1.498;2023-07-31T05:52:56;9.98;;;3.70;;
80293;SDS011;69594;43.516;1.498;2023-07-31T05:55:22;8.43;;;3.00;;
80293;SDS011;69594;43.516;1.498;2023-07-31T05:57:47;6.20;;;2.97;;
80293;SDS011;69594;43.516;1.498;2023-07-31T06:00:13;6.63;;;2.90;;
80293;SDS011;69594;43.516;1.498;2023-07-31T06:02:38;9.13;;;3.33;;
80293;SDS011;69594;43.516;1.498;2023-07-31T06:05:04;8.13;;;3.07;;
80293;SDS011;69594;43.516;1.498;2023-07-31T06:07:30;7.15;;;3.00;;
80293;SDS011;69594;43.516;1.498;2023-07-31T06:09:56;9.63;;;3.30;;
80293;SDS011;69594;43.516;1.498;2023-07-31T06:12:22;10.02;;;3.08;;
80293;SDS011;69594;43.516;1.498;2023-07-31T06:14:47;8.37;;;3.07;;
80293;SDS011;69594;43.516;1.498;2023-07-31T06:17:13;10.13;;;2.87;;
80293;SDS011;69594;43.516;1.498;2023-07-31T06:19:38;6.20;;;2.87;;
80293;SDS011;69594;43.516;1.498;2023-07-31T06:22:03;11.60;;;3.40;;
80293;SDS011;69594;43.516;1.498;2023-07-31T06:24:29;7.90;;;2.83;;
80293;SDS011;69594;43.516;1.498;2023-07-31T06:26:54;10.27;;;3.53;;
80293;SDS011;69594;43.516;1.498;2023-07-31T06:29:20;7.80;;;2.83;;
80293;SDS011;69594;43.516;1.498;2023-07-31T06:31:45;9.13;;;2.77;;
80293;SDS011;69594;43.516;1.498;2023-07-31T06:34:10;9.00;;;3.00;;
80293;SDS011;69594;43.516;1.498;2023-07-31T06:36:36;10.47;;;3.13;;
80293;SDS011;69594;43.516;1.498;2023-07-31T06:39:01;7.23;;;2.60;;
80293;SDS011;69594;43.516;1.498;2023-07-31T06:41:26;9.00;;;2.63;;
80293;SDS011;69594;43.516;1.498;2023-07-31T06:43:51;7.05;;;2.80;;
80293;SDS011;69594;43.516;1.498;2023-07-31T06:46:17;6.33;;;2.77;;
80293;SDS011;69594;43.516;1.498;2023-07-31T06:48:42;9.83;;;2.80;;
80293;SDS011;69594;43.516;1.498;2023-07-31T06:51:07;6.73;;;3.17;;
80293;SDS011;69594;43.516;1.498;2023-07-31T06:53:33;6.80;;;2.97;;
80293;SDS011;69594;43.516;1.498;2023-07-31T06:55:58;7.83;;;2.63;;
80293;SDS011;69594;43.516;1.498;2023-07-31T06:58:23;8.07;;;2.80;;
80293;SDS011;69594;43.516;1.498;2023-07-31T07:00:48;7.17;;;2.57;;
80293;SDS011;69594;43.516;1.498;2023-07-31T07:03:18;7.32;;;2.53;;
80293;SDS011;69594;43.516;1.498;2023-07-31T07:05:43;5.60;;;2.70;;
80293;SDS011;69594;43.516;1.498;2023-07-31T07:08:08;7.57;;;2.33;;
80293;SDS011;69594;43.516;1.498;2023-07-31T07:10:33;8.43;;;2.77;;
80293;SDS011;69594;43.516;1.498;2023-07-31T07:12:59;9.20;;;2.30;;
80293;SDS011;69594;43.516;1.498;2023-07-31T07:15:24;8.60;;;2.67;;
80293;SDS011;69594;43.516;1.498;2023-07-31T07:17:49;7.87;;;2.80;;
80293;SDS011;69594;43.516;1.498;2023-07-31T07:20:15;10.37;;;3.10;;
80293;SDS011;69594;43.516;1.498;2023-07-31T07:22:40;6.97;;;2.53;;
80293;SDS011;69594;43.516;1.498;2023-07-31T07:25:08;10.48;;;2.90;;
80293;SDS011;69594;43.516;1.498;2023-07-31T07:27:33;6.70;;;2.30;;
80293;SDS011;69594;43.516;1.498;2023-07-31T07:29:59;7.17;;;2.93;;
80293;SDS011;69594;43.516;1.498;2023-07-31T07:32:24;7.17;;;2.60;;
80293;SDS011;69594;43.516;1.498;2023-07-31T07:34:49;10.80;;;3.13;;
80293;SDS011;69594;43.516;1.498;2023-07-31T07:37:15;10.27;;;2.70;;
80293;SDS011;69594;43.516;1.498;2023-07-31T07:39:40;7.80;;;2.73;;
80293;SDS011;69594;43.516;1.498;2023-07-31T07:42:05;9.85;;;2.90;;
80293;SDS011;69594;43.516;1.498;2023-07-31T07:44:31;7.80;;;2.50;;
80293;SDS011;69594;43.516;1.498;2023-07-31T07:46:56;7.77;;;2.90;;
80293;SDS011;69594;43.516;1.498;2023-07-31T07:49:22;8.98;;;3.13;;
80293;SDS011;69594;43.516;1.498;2023-07-31T07:51:48;8.47;;;2.63;;
80293;SDS011;69594;43.516;1.498;2023-07-31T07:54:13;9.60;;;2.90;;
80293;SDS011;69594;43.516;1.498;2023-07-31T07:56:38;11.13;;;3.17;;
80293;SDS011;69594;43.516;1.498;2023-07-31T07:59:04;8.50;;;2.57;;
80293;SDS011;69594;43.516;1.498;2023-07-31T08:01:29;6.90;;;3.00;;
80293;SDS011;69594;43.516;1.498;2023-07-31T08:03:54;7.90;;;2.93;;
80293;SDS011;69594;43.516;1.498;2023-07-31T08:06:20;9.77;;;2.97;;
80293;SDS011;69594;43.516;1.498;2023-07-31T08:08:45;8.47;;;2.90;;
80293;SDS011;69594;43.516;1.498;2023-07-31T08:11:10;8.50;;;2.90;;
80293;SDS011;69594;43.516;1.498;2023-07-31T08:13:35;8.03;;;3.23;;
80293;SDS011;69594;43.516;1.498;2023-07-31T08:16:04;6.55;;;2.88;;
80293;SDS011;69594;43.516;1.498;2023-07-31T08:18:30;6.73;;;2.43;;
80293;SDS011;69594;43.516;1.498;2023-07-31T08:20:55;7.85;;;2.95;;
80293;SDS011;69594;43.516;1.498;2023-07-31T08:23:21;8.30;;;2.50;;
80293;SDS011;69594;43.516;1.498;2023-07-31T08:25:46;6.10;;;2.63;;
80293;SDS011;69594;43.516;1.498;2023-07-31T08:28:11;8.50;;;2.80;;
80293;SDS011;69594;43.516;1.498;2023-07-31T08:30:37;7.60;;;2.90;;
80293;SDS011;69594;43.516;1.498;2023-07-31T08:33:02;8.23;;;2.67;;
80293;SDS011;69594;43.516;1.498;2023-07-31T08:35:27;7.57;;;2.77;;
80293;SDS011;69594;43.516;1.498;2023-07-31T08:37:55;6.32;;;2.72;;
80293;SDS011;69594;43.516;1.498;2023-07-31T08:40:21;6.30;;;2.70;;
80293;SDS011;69594;43.516;1.498;2023-07-31T08:42:49;8.03;;;2.50;;
80293;SDS011;69594;43.516;1.498;2023-07-31T08:45:16;10.02;;;3.78;;
80293;SDS011;69594;43.516;1.498;2023-07-31T08:47:44;7.53;;;2.97;;
80293;SDS011;69594;43.516;1.498;2023-07-31T08:50:09;8.48;;;3.00;;
80293;SDS011;69594;43.516;1.498;2023-07-31T08:52:35;10.77;;;3.22;;
80293;SDS011;69594;43.516;1.498;2023-07-31T08:55:00;5.27;;;2.50;;
80293;SDS011;69594;43.516;1.498;2023-07-31T08:57:25;7.67;;;2.67;;
80293;SDS011;69594;43.516;1.498;2023-07-31T08:59:51;7.40;;;2.40;;
80293;SDS011;69594;43.516;1.498;2023-07-31T09:02:16;5.40;;;2.37;;
80293;SDS011;69594;43.516;1.498;2023-07-31T09:04:42;8.60;;;2.38;;
80293;SDS011;69594;43.516;1.498;2023-07-31T09:07:08;6.67;;;2.30;;
80293;SDS011;69594;43.516;1.498;2023-07-31T09:09:34;4.97;;;2.28;;
80293;SDS011;69594;43.516;1.498;2023-07-31T09:11:59;5.37;;;2.27;;
80293;SDS011;69594;43.516;1.498;2023-07-31T09:14:25;6.90;;;2.30;;
80293;SDS011;69594;43.516;1.498;2023-07-31T09:16:57;5.38;;;2.13;;
80293;SDS011;69594;43.516;1.498;2023-07-31T09:19:32;7.70;;;2.20;;
80293;SDS011;69594;43.516;1.498;2023-07-31T09:21:58;3.30;;;1.50;;
80293;SDS011;69594;43.516;1.498;2023-07-31T09:24:27;6.47;;;2.10;;
80293;SDS011;69594;43.516;1.498;2023-07-31T09:26:53;4.53;;;1.98;;
80293;SDS011;69594;43.516;1.498;2023-07-31T09:29:19;5.50;;;2.30;;
80293;SDS011;69594;43.516;1.498;2023-07-31T09:31:45;5.17;;;1.97;;
80293;SDS011;69594;43.516;1.498;2023-07-31T09:34:10;4.37;;;2.17;;
80293;SDS011;69594;43.516;1.498;2023-07-31T09:36:48;6.50;;;2.33;;
80293;SDS011;69594;43.516;1.498;2023-07-31T09:39:15;5.55;;;2.00;;
80293;SDS011;69594;43.516;1.498;2023-07-31T09:41:47;5.65;;;2.03;;
80293;SDS011;69594;43.516;1.498;2023-07-31T09:44:12;5.50;;;1.92;;
80293;SDS011;69594;43.516;1.498;2023-07-31T09:46:38;5.27;;;1.90;;
80293;SDS011;69594;43.516;1.498;2023-07-31T09:49:04;3.90;;;1.53;;
80293;SDS011;69594;43.516;1.498;2023-07-31T09:51:30;3.80;;;1.80;;
80293;SDS011;69594;43.516;1.498;2023-07-31T09:53:56;4.55;;;1.85;;
80293;SDS011;69594;43.516;1.498;2023-07-31T09:56:21;4.97;;;1.70;;
80293;SDS011;69594;43.516;1.498;2023-07-31T09:58:47;4.30;;;1.80;;
80293;SDS011;69594;43.516;1.498;2023-07-31T10:01:13;4.95;;;2.10;;
80293;SDS011;69594;43.516;1.498;2023-07-31T10:03:38;4.13;;;1.90;;
80293;SDS011;69594;43.516;1.498;2023-07-31T10:06:04;5.23;;;1.90;;
80293;SDS011;69594;43.516;1.498;2023-07-31T10:08:32;4.80;;;1.88;;
80293;SDS011;69594;43.516;1.498;2023-07-31T10:10:58;6.53;;;1.90;;
80293;SDS011;69594;43.516;1.498;2023-07-31T10:13:23;4.03;;;1.80;;
80293;SDS011;69594;43.516;1.498;2023-07-31T10:15:49;3.80;;;1.65;;
80293;SDS011;69594;43.516;1.498;2023-07-31T10:18:14;4.93;;;1.67;;
80293;SDS011;69594;43.516;1.498;2023-07-31T10:20:40;5.43;;;1.85;;
80293;SDS011;69594;43.516;1.498;2023-07-31T10:23:06;4.60;;;1.60;;
80293;SDS011;69594;43.516;1.498;2023-07-31T10:25:31;3.23;;;1.50;;
80293;SDS011;69594;43.516;1.498;2023-07-31T10:27:57;4.22;;;1.58;;
80293;SDS011;69594;43.516;1.498;2023-07-31T10:30:25;4.00;;;1.90;;
80293;SDS011;69594;43.516;1.498;2023-07-31T10:32:51;7.10;;;1.70;;
80293;SDS011;69594;43.516;1.498;2023-07-31T10:35:17;3.67;;;1.53;;
80293;SDS011;69594;43.516;1.498;2023-07-31T10:37:43;5.00;;;1.60;;
80293;SDS011;69594;43.516;1.498;2023-07-31T10:40:12;4.30;;;1.57;;
80293;SDS011;69594;43.516;1.498;2023-07-31T10:42:44;7.95;;;2.13;;
80293;SDS011;69594;43.516;1.498;2023-07-31T10:45:10;5.25;;;1.75;;
80293;SDS011;69594;43.516;1.498;2023-07-31T10:47:39;3.27;;;1.70;;
80293;SDS011;69594;43.516;1.498;2023-07-31T10:50:17;3.72;;;1.40;;
80293;SDS011;69594;43.516;1.498;2023-07-31T10:52:52;4.07;;;1.67;;
80293;SDS011;69594;43.516;1.498;2023-07-31T10:57:47;5.60;;;1.90;;
80293;SDS011;69594;43.516;1.498;2023-07-31T11:03:02;3.05;;;1.58;;
80293;SDS011;69594;43.516;1.498;2023-07-31T11:10:37;5.53;;;2.30;;
80293;SDS011;69594;43.516;1.498;2023-07-31T11:13:04;6.50;;;1.93;;
80293;SDS011;69594;43.516;1.498;2023-07-31T11:15:29;4.40;;;2.20;;
80293;SDS011;69594;43.516;1.498;2023-07-31T11:17:55;3.90;;;2.00;;
80293;SDS011;69594;43.516;1.498;2023-07-31T11:20:23;6.55;;;1.83;;
80293;SDS011;69594;43.516;1.498;2023-07-31T11:22:48;4.40;;;1.90;;
80293;SDS011;69594;43.516;1.498;2023-07-31T11:25:14;3.67;;;2.07;;
80293;SDS011;69594;43.516;1.498;2023-07-31T11:27:39;6.20;;;2.00;;
80293;SDS011;69594;43.516;1.498;2023-07-31T11:30:08;5.07;;;2.03;;
80293;SDS011;69594;43.516;1.498;2023-07-31T11:32:36;5.72;;;2.28;;
80293;SDS011;69594;43.516;1.498;2023-07-31T11:35:01;6.32;;;2.03;;
80293;SDS011;69594;43.516;1.498;2023-07-31T11:37:38;3.93;;;1.90;;
80293;SDS011;69594;43.516;1.498;2023-07-31T11:40:04;3.17;;;1.70;;
80293;SDS011;69594;43.516;1.498;2023-07-31T11:42:30;5.40;;;2.20;;
80293;SDS011;69594;43.516;1.498;2023-07-31T11:44:55;4.67;;;2.17;;
80293;SDS011;69594;43.516;1.498;2023-07-31T11:47:20;6.63;;;1.80;;
80293;SDS011;69594;43.516;1.498;2023-07-31T11:49:46;6.23;;;2.10;;
80293;SDS011;69594;43.516;1.498;2023-07-31T11:52:11;5.20;;;2.27;;
80293;SDS011;69594;43.516;1.498;2023-07-31T11:54:37;5.22;;;1.90;;
80293;SDS011;69594;43.516;1.498;2023-07-31T11:57:02;6.73;;;2.27;;
80293;SDS011;69594;43.516;1.498;2023-07-31T11:59:28;8.18;;;1.80;;
80293;SDS011;69594;43.516;1.498;2023-07-31T12:01:53;4.40;;;1.97;;
80293;SDS011;69594;43.516;1.498;2023-07-31T12:04:19;4.27;;;1.80;;
80293;SDS011;69594;43.516;1.498;2023-07-31T12:06:46;4.97;;;2.00;;
80293;SDS011;69594;43.516;1.498;2023-07-31T12:09:11;4.70;;;1.70;;
80293;SDS011;69594;43.516;1.498;2023-07-31T12:11:45;5.55;;;1.80;;
80293;SDS011;69594;43.516;1.498;2023-07-31T12:14:21;5.53;;;1.80;;
80293;SDS011;69594;43.516;1.498;2023-07-31T12:16:56;6.88;;;2.08;;
80293;SDS011;69594;43.516;1.498;2023-07-31T12:19:22;3.78;;;1.80;;
80293;SDS011;69594;43.516;1.498;2023-07-31T12:21:47;4.80;;;1.77;;
80293;SDS011;69594;43.516;1.498;2023-07-31T12:24:12;4.93;;;1.70;;
80293;SDS011;69594;43.516;1.498;2023-07-31T12:26:38;5.00;;;2.20;;
80293;SDS011;69594;43.516;1.498;2023-07-31T12:29:04;5.83;;;1.97;;
80293;SDS011;69594;43.516;1.498;2023-07-31T12:31:31;6.95;;;2.30;;
80293;SDS011;69594;43.516;1.498;2023-07-31T12:33:58;4.88;;;1.92;;
80293;SDS011;69594;43.516;1.498;2023-07-31T12:36:23;4.10;;;2.00;;
80293;SDS011;69594;43.516;1.498;2023-07-31T12:38:49;6.07;;;1.90;;
80293;SDS011;69594;43.516;1.498;2023-07-31T12:41:14;3.90;;;1.70;;
80293;SDS011;69594;43.516;1.498;2023-07-31T12:43:40;6.47;;;1.73;;
80293;SDS011;69594;43.516;1.498;2023-07-31T12:46:06;8.50;;;2.42;;
80293;SDS011;69594;43.516;1.498;2023-07-31T12:48:35;5.87;;;1.90;;
80293;SDS011;69594;43.516;1.498;2023-07-31T12:51:01;8.10;;;2.30;;
80293;SDS011;69594;43.516;1.498;2023-07-31T12:53:26;4.07;;;1.73;;
80293;SDS011;69594;43.516;1.498;2023-07-31T12:55:51;4.07;;;2.00;;
80293;SDS011;69594;43.516;1.498;2023-07-31T12:58:16;5.43;;;2.20;;
80293;SDS011;69594;43.516;1.498;2023-07-31T13:00:42;4.33;;;1.90;;
80293;SDS011;69594;43.516;1.498;2023-07-31T13:03:07;4.72;;;1.83;;
80293;SDS011;69594;43.516;1.498;2023-07-31T13:05:32;4.73;;;2.23;;
80293;SDS011;69594;43.516;1.498;2023-07-31T13:07:58;5.57;;;2.10;;
80293;SDS011;69594;43.516;1.498;2023-07-31T13:10:23;5.23;;;2.30;;
80293;SDS011;69594;43.516;1.498;2023-07-31T13:12:49;6.28;;;2.00;;
80293;SDS011;69594;43.516;1.498;2023-07-31T13:15:14;4.67;;;2.10;;
80293;SDS011;69594;43.516;1.498;2023-07-31T13:17:40;5.83;;;2.10;;
80293;SDS011;69594;43.516;1.498;2023-07-31T13:20:05;4.30;;;1.83;;
80293;SDS011;69594;43.516;1.498;2023-07-31T13:22:31;6.00;;;2.00;;
80293;SDS011;69594;43.516;1.498;2023-07-31T13:24:56;4.70;;;2.20;;
80293;SDS011;69594;43.516;1.498;2023-07-31T13:27:21;5.77;;;2.10;;
80293;SDS011;69594;43.516;1.498;2023-07-31T13:29:50;4.33;;;1.90;;
80293;SDS011;69594;43.516;1.498;2023-07-31T13:32:16;6.82;;;2.25;;
80293;SDS011;69594;43.516;1.498;2023-07-31T13:34:42;5.43;;;2.30;;
80293;SDS011;69594;43.516;1.498;2023-07-31T13:37:07;4.57;;;2.10;;
80293;SDS011;69594;43.516;1.498;2023-07-31T13:39:32;3.47;;;2.10;;
80293;SDS011;69594;43.516;1.498;2023-07-31T13:41:58;5.57;;;2.15;;
80293;SDS011;69594;43.516;1.498;2023-07-31T13:44:23;5.53;;;2.10;;
80293;SDS011;69594;43.516;1.498;2023-07-31T13:46:49;3.33;;;1.87;;
80293;SDS011;69594;43.516;1.498;2023-07-31T13:49:14;5.07;;;1.90;;
80293;SDS011;69594;43.516;1.498;2023-07-31T13:51:39;6.20;;;2.03;;
80293;SDS011;69594;43.516;1.498;2023-07-31T13:54:04;5.47;;;2.03;;
80293;SDS011;69594;43.516;1.498;2023-07-31T13:56:31;5.45;;;2.63;;
80293;SDS011;69594;43.516;1.498;2023-07-31T13:58:56;5.50;;;2.27;;
80293;SDS011;69594;43.516;1.498;2023-07-31T14:01:21;5.77;;;2.23;;
80293;SDS011;69594;43.516;1.498;2023-07-31T14:03:47;4.57;;;2.20;;
80293;SDS011;69594;43.516;1.498;2023-07-31T14:06:12;6.03;;;2.00;;
80293;SDS011;69594;43.516;1.498;2023-07-31T14:08:37;5.43;;;2.20;;
80293;SDS011;69594;43.516;1.498;2023-07-31T14:11:02;3.27;;;1.83;;
80293;SDS011;69594;43.516;1.498;2023-07-31T14:13:28;5.00;;;2.00;;
80293;SDS011;69594;43.516;1.498;2023-07-31T14:15:53;4.40;;;2.13;;
80293;SDS011;69594;43.516;1.498;2023-07-31T14:18:18;5.93;;;2.17;;
80293;SDS011;69594;43.516;1.498;2023-07-31T14:20:44;7.75;;;2.28;;
80293;SDS011;69594;43.516;1.498;2023-07-31T14:23:09;3.57;;;1.83;;
80293;SDS011;69594;43.516;1.498;2023-07-31T14:25:34;5.97;;;2.50;;
80293;SDS011;69594;43.516;1.498;2023-07-31T14:27:59;4.50;;;1.97;;
80293;SDS011;69594;43.516;1.498;2023-07-31T14:30:25;4.23;;;2.17;;
80293;SDS011;69594;43.516;1.498;2023-07-31T14:32:50;4.63;;;1.97;;
80293;SDS011;69594;43.516;1.498;2023-07-31T14:35:15;3.90;;;1.97;;
80293;SDS011;69594;43.516;1.498;2023-07-31T14:37:41;4.60;;;1.83;;
80293;SDS011;69594;43.516;1.498;2023-07-31T14:40:07;4.47;;;1.88;;
80293;SDS011;69594;43.516;1.498;2023-07-31T14:42:32;7.95;;;2.38;;
80293;SDS011;69594;43.516;1.498;2023-07-31T14:44:58;6.60;;;2.23;;
80293;SDS011;69594;43.516;1.498;2023-07-31T14:47:23;3.57;;;2.03;;
80293;SDS011;69594;43.516;1.498;2023-07-31T14:49:48;5.03;;;1.83;;